Costa Mesa, California
Current Conditions -  °F | °C
As of 7:53 AM on Thursday 29 Jan 2015 (Local Time) from KSNA Reporting Station
Overcast Overcast  
Wind Chill: 64°   Ceiling: 15000
Heat Index: 64°   Visibility: 10mi
Dew Point: 50°   Wind: 0mph
Humidity: 60%   Direction: NA
Pressure: 30.03"   Gusts: NA
Location:  33.66°N, 117.9°W
Report Text: KSNA 291553Z 00000KT 10SM SCT080 BKN150 OVC250 18/10 A3003 RMK AO2 SLP169 T01780100
Loading
Personal Weather Stations






























Interactive Weather Map New forecast layout! Learn more

10-Day Weather Forecast

Advertisements
Track Severe Weather on mobile